Time;durP1;ratioP1;P1;durP2;ratioP2;P2;SDS_P1;SDS_P2;PMS_P1;PMS_P2;Temp;Humidity;BMP_temperature;BMP_pressure;BME280_temperature;BME280_humidity;BME280_pressure;Samples;Min_cycle;Max_cycle;Signal;HPM_P1;HPM_P2
2021/12/20 00:02:22;;;;;;;35.33;19.52;;;1.40;99.90;;;;;;5027723;28;20407;-78
2021/12/20 00:04:51;;;;;;;33.42;18.15;;;1.40;99.90;;;;;;5027777;28;20025;-78
2021/12/20 00:07:18;;;;;;;40.75;21.13;;;1.40;99.90;;;;;;5028286;28;20032;-78
2021/12/20 00:09:43;;;;;;;35.85;19.90;;;1.50;99.90;;;;;;5028185;28;20021;-78
2021/12/20 00:12:09;;;;;;;34.47;19.73;;;1.40;99.90;;;;;;5029173;28;20235;-78
2021/12/20 00:14:35;;;;;;;33.15;17.67;;;1.40;99.90;;;;;;5027403;28;20036;-78
2021/12/20 00:17:01;;;;;;;33.88;18.05;;;1.40;99.90;;;;;;5027631;28;20032;-78
2021/12/20 00:19:26;;;;;;;33.63;16.90;;;1.40;99.90;;;;;;5027753;28;20404;-78
2021/12/20 00:21:52;;;;;;;35.78;18.63;;;1.50;99.90;;;;;;5027591;28;20487;-78
2021/12/20 00:24:19;;;;;;;32.13;16.58;;;1.40;99.90;;;;;;5028674;28;20523;-78
2021/12/20 00:26:44;;;;;;;34.92;18.27;;;1.30;99.90;;;;;;5027750;28;20492;-78
2021/12/20 00:29:10;;;;;;;35.83;18.40;;;1.30;99.90;;;;;;5027287;28;20029;-78
2021/12/20 00:31:36;;;;;;;33.00;17.00;;;1.40;99.90;;;;;;5027364;28;20018;-78
2021/12/20 00:34:02;;;;;;;34.70;18.63;;;1.40;99.90;;;;;;4993811;28;20109;-78
2021/12/20 00:36:29;;;;;;;33.00;17.15;;;1.30;99.90;;;;;;5028874;28;20033;-78
2021/12/20 00:41:47;;;;;;;29.00;15.80;;;1.20;99.90;;;;;;4981946;28;20042;-78
2021/12/20 00:44:13;;;;;;;34.80;18.10;;;1.30;99.90;;;;;;4985337;28;20099;-78
2021/12/20 00:46:38;;;;;;;36.28;17.15;;;1.30;99.90;;;;;;4968240;28;20080;-78
2021/12/20 00:49:04;;;;;;;38.80;19.27;;;1.30;99.90;;;;;;4971784;28;20197;-77
2021/12/20 00:51:30;;;;;;;41.03;20.98;;;1.30;99.90;;;;;;4982878;28;20038;-77
2021/12/20 00:53:56;;;;;;;41.85;20.20;;;1.30;99.90;;;;;;4972263;28;20066;-77
2021/12/20 00:56:21;;;;;;;50.25;21.23;;;1.20;99.90;;;;;;4988683;28;20049;-78
2021/12/20 00:58:47;;;;;;;48.92;22.88;;;1.20;99.90;;;;;;4988288;28;20049;-78
2021/12/20 01:01:13;;;;;;;48.45;23.42;;;1.30;99.90;;;;;;4988874;28;20034;-77
2021/12/20 01:03:39;;;;;;;44.38;21.17;;;1.20;99.90;;;;;;4989946;28;20038;-77
2021/12/20 01:06:05;;;;;;;47.95;21.73;;;1.20;99.90;;;;;;4973745;28;20035;-77
2021/12/20 01:08:35;;;;;;;41.92;21.00;;;1.10;99.90;;;;;;4988221;28;20027;-77
2021/12/20 01:11:01;;;;;;;37.35;20.33;;;1.00;99.90;;;;;;4989120;28;20145;-78
2021/12/20 01:13:32;;;;;;;41.47;20.70;;;1.10;99.90;;;;;;4989072;28;20034;-78
2021/12/20 01:16:01;;;;;;;38.97;19.42;;;1.00;99.90;;;;;;4972072;28;20113;-78
2021/12/20 01:18:27;;;;;;;38.13;18.08;;;1.00;99.90;;;;;;5008781;28;20037;-78
2021/12/20 01:20:52;;;;;;;36.35;17.52;;;1.00;99.90;;;;;;5009946;28;20510;-78
2021/12/20 01:23:19;;;;;;;36.60;17.90;;;1.00;99.90;;;;;;5025327;28;20588;-77
2021/12/20 01:25:45;;;;;;;29.17;15.55;;;1.00;99.90;;;;;;5030814;28;20060;-77
2021/12/20 01:28:11;;;;;;;35.45;17.20;;;1.10;99.90;;;;;;5030826;28;20111;-77
2021/12/20 01:30:39;;;;;;;28.52;14.93;;;1.00;99.90;;;;;;5030958;28;20513;-77
2021/12/20 01:33:08;;;;;;;33.53;17.05;;;1.10;99.90;;;;;;5031584;28;20084;-77
2021/12/20 01:35:34;;;;;;;31.63;15.95;;;1.00;99.90;;;;;;5030309;28;20025;-77
2021/12/20 01:38:00;;;;;;;25.98;14.23;;;1.00;99.90;;;;;;5030120;28;20483;-77
2021/12/20 01:40:26;;;;;;;27.42;15.90;;;1.00;99.90;;;;;;5030581;28;20025;-78
2021/12/20 01:42:58;;;;;;;27.13;13.90;;;1.00;99.90;;;;;;5030817;28;20043;-77
2021/12/20 01:45:26;;;;;;;27.75;14.50;;;1.00;99.90;;;;;;5010326;28;20168;-77
2021/12/20 01:48:02;;;;;;;26.80;13.98;;;1.00;99.90;;;;;;5028385;28;20071;-78
2021/12/20 01:53:07;;;;;;;27.25;14.30;;;0.90;99.90;;;;;;5029961;28;20330;-78
2021/12/20 01:55:33;;;;;;;24.85;14.20;;;1.00;99.90;;;;;;5030193;28;20495;-77
2021/12/20 01:57:59;;;;;;;23.77;13.82;;;0.90;99.90;;;;;;5030365;28;20031;-77
2021/12/20 02:00:27;;;;;;;23.02;13.02;;;0.90;99.90;;;;;;5030980;28;20105;-78
2021/12/20 02:03:00;;;;;;;26.50;13.35;;;0.80;99.90;;;;;;5030173;28;20474;-77
2021/12/20 02:08:41;;;;;;;26.73;13.93;;;0.80;99.90;;;;;;5029522;28;20599;-77
2021/12/20 02:11:10;;;;;;;22.98;12.73;;;0.80;99.90;;;;;;5029734;28;20034;-78
2021/12/20 02:13:37;;;;;;;25.42;14.10;;;0.80;99.90;;;;;;5029494;28;20024;-77
2021/12/20 02:16:04;;;;;;;26.75;13.38;;;0.80;99.90;;;;;;5013007;28;20047;-78
2021/12/20 02:18:31;;;;;;;21.83;12.98;;;0.80;99.90;;;;;;5010436;28;20022;-77
2021/12/20 02:20:57;;;;;;;22.92;12.65;;;0.80;99.90;;;;;;5011608;28;20040;-78
2021/12/20 02:23:23;;;;;;;19.15;11.60;;;0.70;99.90;;;;;;5029652;28;20079;-77
2021/12/20 02:25:50;;;;;;;23.80;12.48;;;0.60;99.90;;;;;;5010577;28;20495;-77
2021/12/20 02:28:18;;;;;;;22.77;13.40;;;0.60;99.90;;;;;;5029604;28;20026;-77
2021/12/20 02:38:55;;;;;;;26.17;13.10;;;0.70;99.90;;;;;;5029126;28;20044;-77
2021/12/20 02:41:26;;;;;;;30.30;14.90;;;0.60;99.90;;;;;;5011527;28;20040;-77
2021/12/20 02:44:01;;;;;;;28.73;13.77;;;0.50;99.90;;;;;;5009913;28;20196;-77
2021/12/20 02:49:02;;;;;;;30.77;14.55;;;0.50;99.90;;;;;;5029545;28;20032;-77
2021/12/20 02:51:27;;;;;;;31.08;15.18;;;0.50;99.90;;;;;;5030500;28;20105;-76
2021/12/20 02:53:56;;;;;;;29.20;14.60;;;0.60;99.90;;;;;;5028798;28;20041;-77
2021/12/20 02:56:23;;;;;;;28.38;14.52;;;0.70;99.90;;;;;;5029151;28;20505;-77
2021/12/20 02:58:49;;;;;;;28.27;14.65;;;0.50;99.90;;;;;;5028714;28;20531;-77
2021/12/20 03:01:15;;;;;;;28.65;15.18;;;0.50;99.90;;;;;;5029103;28;20049;-76
2021/12/20 03:03:41;;;;;;;29.00;14.60;;;0.40;99.90;;;;;;5029242;28;20022;-76
2021/12/20 03:06:20;;;;;;;27.10;13.73;;;0.30;99.90;;;;;;5030188;28;20029;-76
2021/12/20 03:08:49;;;;;;;29.95;15.57;;;0.10;99.90;;;;;;5007246;28;20555;-76
2021/12/20 03:11:15;;;;;;;26.92;15.05;;;0.30;99.90;;;;;;5021722;28;20566;-76
2021/12/20 03:13:44;;;;;;;23.17;14.13;;;0.30;99.90;;;;;;5028920;28;20120;-76
2021/12/20 03:16:09;;;;;;;27.23;13.82;;;0.30;99.90;;;;;;5011026;28;20029;-76
2021/12/20 03:18:35;;;;;;;28.33;14.57;;;0.30;99.90;;;;;;5011815;28;20053;-76
2021/12/20 03:21:01;;;;;;;27.08;14.18;;;0.30;99.90;;;;;;5008073;28;20025;-76
2021/12/20 03:23:27;;;;;;;23.92;13.70;;;0.30;99.90;;;;;;5024217;28;20120;-76
2021/12/20 03:25:52;;;;;;;24.33;13.05;;;0.30;99.90;;;;;;5009300;28;20108;-76
2021/12/20 03:28:18;;;;;;;22.05;13.00;;;0.20;99.90;;;;;;5028545;28;20095;-76
2021/12/20 03:30:44;;;;;;;21.17;13.35;;;-0.10;99.90;;;;;;5028661;28;20037;-76
2021/12/20 03:33:10;;;;;;;27.15;14.57;;;-0.40;99.90;;;;;;5029274;28;20025;-76
2021/12/20 03:35:36;;;;;;;25.70;14.52;;;-0.20;99.90;;;;;;5028102;28;20021;-76
2021/12/20 03:38:02;;;;;;;24.13;12.48;;;0.00;99.90;;;;;;5007025;28;20484;-76
2021/12/20 03:40:28;;;;;;;22.73;13.00;;;0.00;99.90;;;;;;5015684;28;20041;-76
2021/12/20 03:42:54;;;;;;;25.10;13.15;;;0.10;99.90;;;;;;5026903;28;20034;-75
2021/12/20 03:45:19;;;;;;;21.08;13.05;;;0.10;99.90;;;;;;5029340;28;20422;-75
2021/12/20 03:47:45;;;;;;;19.73;11.55;;;0.00;99.90;;;;;;5007245;28;20107;-75
2021/12/20 03:50:12;;;;;;;21.50;12.13;;;-0.20;99.90;;;;;;5021924;28;20075;-75
2021/12/20 03:52:38;;;;;;;22.58;12.30;;;-0.30;99.90;;;;;;5027888;28;20025;-75
2021/12/20 03:55:10;;;;;;;25.00;13.55;;;-0.30;99.90;;;;;;5009880;28;20017;-75
2021/12/20 03:57:36;;;;;;;23.65;13.45;;;-0.40;99.90;;;;;;5025057;28;20041;-75
2021/12/20 04:00:06;;;;;;;21.17;12.65;;;-0.50;99.90;;;;;;5028513;28;20024;-76
2021/12/20 04:02:38;;;;;;;21.77;12.60;;;-0.40;99.90;;;;;;5006609;28;20496;-75
2021/12/20 04:05:05;;;;;;;19.50;11.98;;;-0.10;99.90;;;;;;5018897;28;20100;-75
2021/12/20 04:07:31;;;;;;;22.92;12.40;;;-0.10;99.90;;;;;;5006611;28;20484;-75
2021/12/20 04:09:57;;;;;;;23.30;13.27;;;-0.10;99.90;;;;;;5027031;28;20087;-75
2021/12/20 04:12:23;;;;;;;21.58;12.13;;;0.00;99.90;;;;;;5008241;28;20057;-75
2021/12/20 04:14:48;;;;;;;22.15;12.45;;;-0.10;99.90;;;;;;5026125;28;20045;-75
2021/12/20 04:17:14;;;;;;;21.17;12.23;;;0.00;99.90;;;;;;5027570;28;20022;-75
2021/12/20 04:19:40;;;;;;;25.75;12.95;;;-0.20;99.90;;;;;;5027620;28;20021;-76
2021/12/20 04:22:06;;;;;;;21.27;12.48;;;-0.30;99.90;;;;;;5027935;28;20468;-75
2021/12/20 04:24:31;;;;;;;21.35;12.00;;;-0.50;99.90;;;;;;5029090;28;20053;-75
2021/12/20 04:26:57;;;;;;;23.02;11.95;;;-0.50;99.90;;;;;;5009802;28;20034;-75
2021/12/20 04:29:23;;;;;;;24.55;12.73;;;-0.40;99.90;;;;;;5026881;28;20513;-75
2021/12/20 04:31:49;;;;;;;23.35;12.68;;;-0.30;99.90;;;;;;5027543;28;20026;-75
2021/12/20 04:34:15;;;;;;;22.45;12.23;;;-0.20;99.90;;;;;;5027505;28;20505;-75
2021/12/20 04:36:41;;;;;;;19.42;11.48;;;-0.30;99.90;;;;;;5027755;28;20022;-75
2021/12/20 04:39:12;;;;;;;25.55;14.15;;;-0.50;99.90;;;;;;5007116;28;20417;-75
2021/12/20 04:41:38;;;;;;;22.83;12.85;;;-0.40;99.90;;;;;;5024167;28;20025;-75
2021/12/20 04:44:04;;;;;;;22.08;12.50;;;-0.30;99.90;;;;;;5027634;28;20549;-75
2021/12/20 04:46:30;;;;;;;20.33;11.80;;;-0.30;99.90;;;;;;5027392;28;20067;-75
2021/12/20 04:48:56;;;;;;;18.27;11.50;;;-0.20;99.90;;;;;;5009565;28;20388;-75
2021/12/20 04:51:21;;;;;;;19.98;11.65;;;-0.20;99.90;;;;;;5028815;28;20084;-75
2021/12/20 04:53:47;;;;;;;21.85;13.18;;;-0.30;99.90;;;;;;5027256;28;20157;-75
2021/12/20 04:56:13;;;;;;;22.38;12.65;;;-0.30;99.90;;;;;;5027223;28;20103;-75
2021/12/20 04:58:38;;;;;;;23.77;13.50;;;-0.20;99.90;;;;;;5027166;28;20108;-75
2021/12/20 05:01:04;;;;;;;22.63;12.77;;;-0.30;99.90;;;;;;5027654;28;20029;-75
2021/12/20 05:03:30;;;;;;;19.88;11.25;;;-0.20;99.90;;;;;;5024992;28;20580;-75
2021/12/20 05:05:56;;;;;;;21.65;12.35;;;-0.30;99.90;;;;;;5009250;28;20534;-75
2021/12/20 05:08:21;;;;;;;21.02;11.85;;;-0.20;99.90;;;;;;5026390;28;20517;-75
2021/12/20 05:10:47;;;;;;;21.00;12.50;;;-0.40;99.90;;;;;;5007489;28;20522;-74
2021/12/20 05:13:14;;;;;;;23.52;12.30;;;-0.50;99.90;;;;;;5027515;28;20429;-75
2021/12/20 05:15:41;;;;;;;20.80;12.88;;;-0.40;99.90;;;;;;5028050;28;20037;-75
2021/12/20 05:18:10;;;;;;;19.08;11.25;;;-0.40;99.90;;;;;;5027504;28;20037;-74
2021/12/20 05:20:36;;;;;;;19.85;12.13;;;-0.30;99.90;;;;;;5008852;28;20033;-75
2021/12/20 05:23:04;;;;;;;18.63;11.95;;;-0.40;99.90;;;;;;5008835;28;20037;-75
2021/12/20 05:25:30;;;;;;;20.85;12.18;;;-0.40;99.90;;;;;;5025692;28;20030;-75
2021/12/20 05:27:56;;;;;;;24.13;13.20;;;-0.40;99.90;;;;;;5009176;28;20505;-75
2021/12/20 05:30:22;;;;;;;23.05;12.55;;;-0.60;99.90;;;;;;5028305;28;20021;-74
2021/12/20 05:32:48;;;;;;;25.73;12.07;;;-0.60;99.90;;;;;;5027073;28;20057;-75
2021/12/20 05:35:16;;;;;;;22.20;11.85;;;-0.50;99.90;;;;;;5011404;28;20112;-75
2021/12/20 05:37:43;;;;;;;19.23;11.82;;;-0.50;99.90;;;;;;5030144;28;20138;-75
2021/12/20 05:40:12;;;;;;;27.42;12.80;;;-0.60;99.90;;;;;;5030536;28;20029;-75
2021/12/20 05:42:37;;;;;;;21.05;11.93;;;-0.70;99.90;;;;;;5030837;28;20111;-75
2021/12/20 05:45:04;;;;;;;22.20;11.90;;;-0.90;99.90;;;;;;5031230;28;20049;-75
2021/12/20 05:47:30;;;;;;;20.52;11.82;;;-0.80;99.90;;;;;;5029926;28;20053;-72
2021/12/20 05:49:56;;;;;;;19.05;11.05;;;-0.70;99.90;;;;;;5030242;28;20030;-72
2021/12/20 05:52:21;;;;;;;19.42;10.98;;;-0.70;99.90;;;;;;5030215;28;20503;-72
2021/12/20 05:54:47;;;;;;;21.73;12.55;;;-0.70;99.90;;;;;;5030424;28;20053;-72
2021/12/20 05:57:13;;;;;;;22.80;11.98;;;-0.80;99.90;;;;;;5031199;28;20017;-73
2021/12/20 05:59:39;;;;;;;20.75;11.73;;;-0.70;99.90;;;;;;5029903;28;20196;-72
2021/12/20 06:02:05;;;;;;;21.65;12.75;;;-1.10;99.90;;;;;;5030053;28;20026;-72
2021/12/20 06:04:31;;;;;;;19.85;11.60;;;-1.20;99.90;;;;;;5029905;28;20457;-74
2021/12/20 06:06:56;;;;;;;24.67;12.52;;;-0.90;99.90;;;;;;5030037;28;20034;-74
2021/12/20 06:09:22;;;;;;;22.45;13.25;;;-0.80;99.90;;;;;;5031325;28;20075;-72
2021/12/20 06:11:48;;;;;;;22.38;13.82;;;-0.70;99.90;;;;;;5030108;28;20022;-72
2021/12/20 06:14:15;;;;;;;26.20;13.43;;;-0.70;99.90;;;;;;5029546;28;20017;-72
2021/12/20 06:16:40;;;;;;;23.50;12.90;;;-0.80;99.90;;;;;;5026390;28;20060;-73
2021/12/20 06:19:07;;;;;;;24.67;12.75;;;-0.80;99.90;;;;;;5030059;28;20108;-73
2021/12/20 06:21:33;;;;;;;23.63;13.27;;;-0.70;99.90;;;;;;5030975;28;20192;-72
2021/12/20 06:23:59;;;;;;;22.98;12.55;;;-0.70;99.90;;;;;;5029571;28;20542;-72
2021/12/20 06:26:25;;;;;;;21.73;12.05;;;-0.70;99.90;;;;;;5029493;28;20025;-73
2021/12/20 06:28:51;;;;;;;20.13;12.23;;;-0.80;99.90;;;;;;5029276;28;20061;-72
2021/12/20 06:31:18;;;;;;;22.67;12.55;;;-0.80;99.90;;;;;;5011785;28;20025;-72
2021/12/20 06:33:43;;;;;;;24.33;14.32;;;-0.70;99.90;;;;;;5030110;28;20026;-72
2021/12/20 06:36:09;;;;;;;24.42;13.73;;;-0.70;99.90;;;;;;5030652;28;20025;-73
2021/12/20 06:38:35;;;;;;;24.73;13.90;;;-0.70;99.90;;;;;;5029027;28;20657;-72
2021/12/20 06:41:01;;;;;;;25.35;14.15;;;-0.70;99.90;;;;;;5029706;28;20021;-73
2021/12/20 06:43:30;;;;;;;24.55;13.65;;;-0.70;99.90;;;;;;5029537;28;20037;-73
2021/12/20 06:45:56;;;;;;;24.25;13.68;;;-0.70;99.90;;;;;;5028012;28;20221;-73
2021/12/20 06:48:22;;;;;;;23.52;13.52;;;-0.70;99.90;;;;;;5030816;28;20029;-73
2021/12/20 06:50:47;;;;;;;21.92;12.07;;;-0.70;99.90;;;;;;5010826;28;20091;-73
2021/12/20 06:53:13;;;;;;;28.40;14.13;;;-0.70;99.90;;;;;;5028971;28;20025;-72
2021/12/20 06:55:39;;;;;;;23.55;13.35;;;-0.70;99.90;;;;;;5029004;28;20097;-72
2021/12/20 06:58:05;;;;;;;26.65;13.13;;;-0.70;99.90;;;;;;5029185;28;20029;-73
2021/12/20 07:00:31;;;;;;;21.00;13.18;;;-0.70;99.90;;;;;;5026588;28;20049;-72
2021/12/20 07:02:57;;;;;;;21.75;12.48;;;-0.70;99.90;;;;;;5029074;28;20029;-72
2021/12/20 07:05:23;;;;;;;21.20;12.38;;;-0.70;99.90;;;;;;5028816;28;20044;-72
2021/12/20 07:07:49;;;;;;;23.40;13.23;;;-0.70;99.90;;;;;;5028689;28;20030;-72
2021/12/20 07:10:15;;;;;;;22.38;12.40;;;-0.60;99.90;;;;;;5028803;28;20088;-72
2021/12/20 07:12:41;;;;;;;24.17;13.25;;;-0.70;99.90;;;;;;5011997;28;20022;-72
2021/12/20 07:15:11;;;;;;;22.48;12.57;;;-0.70;99.90;;;;;;5029114;28;20411;-73
2021/12/20 07:17:37;;;;;;;25.10;12.03;;;-1.00;99.90;;;;;;5028693;28;20036;-72
2021/12/20 07:20:04;;;;;;;22.42;12.00;;;-0.90;99.90;;;;;;5028497;28;20030;-72
2021/12/20 07:22:30;;;;;;;22.58;12.90;;;-0.80;99.90;;;;;;5028397;28;20021;-72
2021/12/20 07:24:56;;;;;;;20.35;11.93;;;-0.90;99.90;;;;;;5028858;28;20083;-72
2021/12/20 07:27:21;;;;;;;24.33;12.88;;;-0.90;99.90;;;;;;5029961;28;20556;-72
2021/12/20 07:29:48;;;;;;;20.23;12.13;;;-0.90;99.90;;;;;;5028316;28;20029;-72
2021/12/20 07:32:14;;;;;;;20.98;12.45;;;-0.90;99.90;;;;;;5007099;28;20156;-72
2021/12/20 07:34:39;;;;;;;26.50;14.52;;;-0.80;99.90;;;;;;5017154;28;20104;-72
2021/12/20 07:37:06;;;;;;;25.48;13.63;;;-0.80;99.90;;;;;;5028372;28;20422;-72
2021/12/20 07:39:33;;;;;;;28.30;14.15;;;-0.80;99.90;;;;;;5029919;28;20026;-72
2021/12/20 07:41:59;;;;;;;25.92;14.88;;;-0.80;99.90;;;;;;5028207;28;20037;-72
2021/12/20 07:44:25;;;;;;;29.42;14.57;;;-0.70;99.90;;;;;;5027978;28;20053;-72
2021/12/20 07:46:51;;;;;;;25.90;14.23;;;-0.80;99.90;;;;;;5027420;28;20046;-72
2021/12/20 07:49:18;;;;;;;24.77;13.30;;;-0.60;99.90;;;;;;5028145;28;20060;-72
2021/12/20 07:51:44;;;;;;;26.02;14.40;;;-0.50;99.90;;;;;;5028601;28;20021;-72
2021/12/20 07:54:09;;;;;;;26.30;13.52;;;-0.50;99.90;;;;;;5028755;28;20608;-72
2021/12/20 07:56:35;;;;;;;26.27;13.45;;;-0.40;99.90;;;;;;5027797;28;20021;-72
2021/12/20 07:59:01;;;;;;;23.05;13.10;;;-0.40;99.90;;;;;;5027405;28;20391;-72
2021/12/20 08:01:27;;;;;;;25.20;13.32;;;-0.40;99.90;;;;;;5023423;28;20105;-72
2021/12/20 08:03:53;;;;;;;24.27;13.93;;;-0.40;99.90;;;;;;5027492;28;20087;-72
2021/12/20 08:06:20;;;;;;;26.27;14.52;;;-0.20;99.90;;;;;;5022772;28;20032;-72
2021/12/20 08:08:45;;;;;;;26.08;15.60;;;0.00;99.90;;;;;;5024189;28;20108;-71
2021/12/20 08:11:11;;;;;;;26.48;15.50;;;0.10;99.90;;;;;;5026772;28;20108;-71
2021/12/20 08:13:44;;;;;;;31.17;15.68;;;0.10;99.90;;;;;;5004232;28;20029;-71
2021/12/20 08:16:11;;;;;;;29.23;16.08;;;0.00;99.90;;;;;;5027154;28;20569;-71
2021/12/20 08:18:38;;;;;;;30.08;16.02;;;0.00;99.90;;;;;;5027266;28;20033;-71
2021/12/20 08:21:04;;;;;;;26.58;15.82;;;0.00;99.90;;;;;;5027738;28;20032;-71
2021/12/20 08:23:30;;;;;;;32.95;16.90;;;0.00;99.90;;;;;;5026548;28;20478;-71
2021/12/20 08:25:55;;;;;;;32.30;16.67;;;0.10;99.90;;;;;;5025977;28;20491;-71
2021/12/20 08:28:21;;;;;;;29.27;16.33;;;0.10;99.90;;;;;;5025336;28;20492;-71
2021/12/20 08:30:47;;;;;;;33.55;16.98;;;0.00;99.90;;;;;;5024837;28;20125;-71
2021/12/20 08:33:13;;;;;;;31.20;15.90;;;0.10;99.90;;;;;;5029225;28;20506;-71
2021/12/20 08:35:40;;;;;;;33.15;17.23;;;0.30;99.90;;;;;;5022788;28;20032;-71
2021/12/20 08:38:05;;;;;;;36.05;18.17;;;0.20;99.90;;;;;;5025088;28;20021;-71
2021/12/20 08:40:31;;;;;;;35.42;19.38;;;0.20;99.90;;;;;;5027938;28;20026;-71
2021/12/20 08:42:57;;;;;;;36.15;18.88;;;0.40;99.90;;;;;;5028306;28;20546;-71
2021/12/20 08:45:23;;;;;;;38.58;19.38;;;0.70;99.90;;;;;;5012559;28;20026;-71
2021/12/20 08:47:48;;;;;;;38.10;18.45;;;0.80;99.90;;;;;;5016482;28;20034;-71
2021/12/20 08:50:17;;;;;;;33.70;19.85;;;0.80;99.90;;;;;;5016067;28;20018;-71
2021/12/20 08:52:43;;;;;;;35.30;19.27;;;0.80;99.90;;;;;;5026533;28;20018;-71
2021/12/20 08:55:10;;;;;;;31.13;16.73;;;1.20;99.90;;;;;;5013932;28;20033;-71
2021/12/20 08:57:35;;;;;;;31.23;16.02;;;1.50;99.90;;;;;;5025165;28;20040;-71
2021/12/20 09:00:07;;;;;;;30.20;15.10;;;1.70;99.90;;;;;;5025892;28;20495;-71
2021/12/20 09:02:33;;;;;;;33.17;16.92;;;2.90;99.90;;;;;;5027618;28;20064;-71
2021/12/20 09:04:59;;;;;;;27.10;15.93;;;4.30;99.90;;;;;;5024479;28;20494;-71
2021/12/20 09:07:24;;;;;;;31.02;16.05;;;4.40;99.90;;;;;;5014687;28;20534;-71
2021/12/20 09:09:51;;;;;;;31.83;16.02;;;5.90;99.90;;;;;;5029614;28;20061;-72
2021/12/20 09:12:18;;;;;;;29.55;15.30;;;7.80;98.80;;;;;;5014887;28;20024;-72
2021/12/20 09:14:45;;;;;;;25.15;14.25;;;7.50;97.50;;;;;;5013395;28;20082;-72
2021/12/20 09:17:11;;;;;;;22.20;14.23;;;5.10;99.90;;;;;;5030990;28;20025;-72
2021/12/20 09:19:37;;;;;;;25.10;13.95;;;3.60;99.90;;;;;;5031443;28;20025;-72
2021/12/20 09:22:06;;;;;;;25.23;14.00;;;3.20;99.90;;;;;;5017604;28;20021;-72
2021/12/20 09:24:35;;;;;;;26.25;13.82;;;3.00;99.90;;;;;;5028308;28;20410;-72
2021/12/20 09:27:02;;;;;;;25.23;13.77;;;2.70;99.90;;;;;;5031545;28;20193;-72
2021/12/20 09:29:28;;;;;;;22.65;13.65;;;2.70;99.90;;;;;;5030791;28;20044;-72
2021/12/20 09:31:54;;;;;;;25.88;15.20;;;2.40;99.90;;;;;;5029431;28;20025;-73
2021/12/20 09:34:19;;;;;;;24.45;15.00;;;2.50;99.90;;;;;;5029300;28;20519;-73
2021/12/20 09:36:45;;;;;;;20.15;13.68;;;2.70;99.90;;;;;;5030746;28;20049;-73
2021/12/20 09:39:11;;;;;;;23.85;14.25;;;2.70;99.90;;;;;;5031343;28;20108;-73
2021/12/20 09:44:09;;;;;;;24.55;14.20;;;2.90;99.90;;;;;;5030923;28;20025;-73
2021/12/20 09:46:36;;;;;;;22.60;13.35;;;2.80;99.90;;;;;;5030951;28;20049;-73
2021/12/20 09:49:03;;;;;;;20.60;12.60;;;2.70;99.90;;;;;;5030245;28;20045;-73
2021/12/20 09:51:28;;;;;;;22.58;13.48;;;2.70;99.90;;;;;;5031571;28;20021;-73
2021/12/20 09:53:55;;;;;;;21.00;11.80;;;2.60;99.90;;;;;;5019985;28;20064;-74
2021/12/20 09:56:24;;;;;;;23.80;13.98;;;2.70;99.90;;;;;;5021064;28;20021;-74
2021/12/20 09:58:53;;;;;;;45.42;24.52;;;2.90;99.90;;;;;;5030333;28;20029;-73
2021/12/20 10:01:20;;;;;;;48.25;25.23;;;2.70;99.90;;;;;;5028676;28;20032;-73
2021/12/20 10:03:46;;;;;;;44.47;22.95;;;2.60;99.90;;;;;;5029936;28;20498;-73
2021/12/20 10:06:12;;;;;;;39.10;20.85;;;2.50;99.90;;;;;;5009800;28;20053;-73
2021/12/20 10:08:48;;;;;;;32.75;18.60;;;2.60;99.90;;;;;;5025901;28;20040;-73
2021/12/20 10:11:26;;;;;;;34.15;18.02;;;2.60;99.90;;;;;;5023066;28;20029;-73
2021/12/20 10:14:27;;;;;;;30.58;16.73;;;2.50;99.90;;;;;;5020163;28;21603;-73
2021/12/20 10:17:05;;;;;;;29.33;16.65;;;2.80;99.90;;;;;;4950954;28;20031;-73
2021/12/20 10:19:34;;;;;;;28.17;16.15;;;2.90;99.90;;;;;;4967818;28;20038;-73
2021/12/20 10:22:02;;;;;;;26.67;15.38;;;3.10;99.90;;;;;;4967683;28;20027;-73
2021/12/20 10:24:36;;;;;;;28.20;14.48;;;3.20;99.90;;;;;;4969389;28;20043;-73
2021/12/20 10:27:03;;;;;;;28.63;14.48;;;3.30;99.90;;;;;;4968378;28;20205;-74
2021/12/20 10:29:29;;;;;;;26.35;13.70;;;3.30;99.90;;;;;;4967458;28;20030;-73
2021/12/20 10:31:56;;;;;;;24.67;14.00;;;3.30;99.90;;;;;;4967031;28;20115;-73
2021/12/20 10:34:35;;;;;;;25.00;14.35;;;3.40;99.90;;;;;;4967863;28;20030;-74
2021/12/20 10:37:02;;;;;;;20.55;12.68;;;3.40;99.90;;;;;;4967428;28;20615;-73
2021/12/20 10:39:41;;;;;;;20.42;12.90;;;3.40;99.90;;;;;;4969002;28;20046;-73
2021/12/20 10:42:27;;;;;;;22.65;13.20;;;3.60;99.90;;;;;;4951624;28;20046;-73
2021/12/20 10:45:13;;;;;;;26.65;14.45;;;3.60;99.90;;;;;;4967422;28;20083;-73
2021/12/20 10:47:42;;;;;;;24.73;12.98;;;3.60;99.90;;;;;;4967336;28;20077;-73
2021/12/20 10:50:31;;;;;;;22.02;12.70;;;3.70;99.90;;;;;;4978473;28;20029;-73
2021/12/20 10:53:20;;;;;;;20.70;11.82;;;3.80;99.90;;;;;;5009505;28;20478;-73
2021/12/20 10:56:06;;;;;;;19.75;11.65;;;3.80;99.90;;;;;;5028180;28;20502;-73
2021/12/20 10:58:38;;;;;;;22.08;11.35;;;3.80;99.90;;;;;;5028617;28;20033;-73
2021/12/20 11:01:03;;;;;;;19.38;11.30;;;3.80;99.90;;;;;;5027867;28;20025;-73
2021/12/20 11:03:35;;;;;;;20.67;10.90;;;3.80;99.90;;;;;;5029937;28;20530;-74
2021/12/20 11:09:08;;;;;;;15.48;9.32;;;4.10;99.90;;;;;;5025133;28;20539;-74
2021/12/20 11:11:42;;;;;;;17.80;10.05;;;4.20;99.90;;;;;;5023768;28;20064;-74
2021/12/20 11:14:09;;;;;;;14.13;9.43;;;4.10;99.90;;;;;;5025497;28;20042;-74
2021/12/20 11:16:37;;;;;;;14.02;9.20;;;4.20;99.90;;;;;;5025867;28;20143;-74
2021/12/20 11:19:17;;;;;;;15.95;8.95;;;4.30;99.90;;;;;;5025216;28;20227;-74
2021/12/20 11:21:46;;;;;;;15.07;9.13;;;4.30;99.90;;;;;;5024717;28;20155;-73
2021/12/20 11:24:14;;;;;;;18.85;9.30;;;4.40;99.90;;;;;;5026203;28;20280;-72
2021/12/20 11:26:40;;;;;;;16.15;10.23;;;4.50;99.90;;;;;;5021679;28;20061;-72
2021/12/20 11:29:05;;;;;;;17.02;9.98;;;4.50;99.90;;;;;;5025000;28;20515;-72
2021/12/20 11:31:32;;;;;;;16.48;9.55;;;4.40;99.90;;;;;;5023454;28;20507;-71
2021/12/20 11:34:00;;;;;;;19.70;10.45;;;4.50;99.90;;;;;;5024880;28;20033;-71
2021/12/20 11:36:26;;;;;;;14.40;8.48;;;4.50;99.90;;;;;;5026506;28;20585;-72
2021/12/20 11:38:53;;;;;;;16.88;9.48;;;4.60;99.90;;;;;;5024264;28;20454;-72
2021/12/20 11:41:18;;;;;;;18.88;10.90;;;4.70;99.90;;;;;;5024566;28;20033;-72
2021/12/20 11:43:47;;;;;;;15.32;9.82;;;4.70;99.90;;;;;;5023887;28;20600;-72
2021/12/20 11:46:14;;;;;;;20.95;11.27;;;4.80;99.90;;;;;;5026816;28;20079;-72
2021/12/20 11:48:42;;;;;;;17.55;10.45;;;5.00;99.90;;;;;;5028229;28;20033;-72
2021/12/20 11:51:08;;;;;;;16.73;10.10;;;4.90;99.90;;;;;;5029161;28;20028;-72
2021/12/20 11:53:36;;;;;;;17.63;10.95;;;5.10;99.90;;;;;;5009123;28;20109;-72
2021/12/20 11:56:03;;;;;;;16.65;10.30;;;5.00;99.90;;;;;;5010042;28;20025;-73
2021/12/20 11:58:32;;;;;;;20.38;12.02;;;5.10;99.90;;;;;;5027094;28;20105;-72
2021/12/20 12:01:02;;;;;;;20.33;11.27;;;5.50;99.90;;;;;;5023369;28;20103;-72
2021/12/20 12:03:39;;;;;;;17.67;11.15;;;5.40;99.90;;;;;;5027637;28;20041;-73
2021/12/20 12:06:07;;;;;;;20.23;11.50;;;5.40;99.90;;;;;;5028003;28;20087;-72
2021/12/20 12:08:33;;;;;;;19.20;11.02;;;5.30;99.90;;;;;;5026024;28;20490;-73
2021/12/20 12:11:29;;;;;;;21.65;13.32;;;5.30;99.90;;;;;;5026631;28;20469;-73
2021/12/20 12:14:06;;;;;;;20.17;12.45;;;5.80;99.90;;;;;;5000336;28;20033;-72
2021/12/20 12:17:01;;;;;;;24.38;13.00;;;5.60;99.90;;;;;;5009317;28;20175;-72
2021/12/20 12:19:39;;;;;;;21.88;12.52;;;5.60;99.90;;;;;;5028226;28;20021;-73
2021/12/20 12:22:27;;;;;;;22.45;12.30;;;5.70;99.90;;;;;;5027783;28;20325;-73
2021/12/20 12:24:55;;;;;;;22.90;12.85;;;5.70;99.90;;;;;;5010009;28;20030;-73
2021/12/20 12:27:43;;;;;;;20.60;13.23;;;5.80;99.90;;;;;;5029083;28;20568;-73
2021/12/20 12:30:12;;;;;;;25.42;13.90;;;5.90;99.90;;;;;;5028440;28;20094;-74
2021/12/20 12:32:58;;;;;;;25.23;13.75;;;6.60;99.90;;;;;;5027972;28;20052;-73
2021/12/20 12:35:39;;;;;;;23.67;13.68;;;6.50;99.90;;;;;;4991563;28;20029;-73
2021/12/20 12:38:20;;;;;;;22.27;13.05;;;6.20;99.90;;;;;;5027607;28;20025;-73
2021/12/20 12:41:08;;;;;;;22.48;11.65;;;6.10;99.90;;;;;;5026243;28;20018;-73
2021/12/20 12:43:54;;;;;;;20.60;12.98;;;6.20;99.90;;;;;;5007406;28;20038;-74
2021/12/20 12:46:40;;;;;;;23.05;12.27;;;6.10;99.90;;;;;;5033147;28;20048;-73
2021/12/20 12:49:21;;;;;;;20.77;12.82;;;6.20;99.90;;;;;;5016703;28;20113;-73
2021/12/20 12:51:52;;;;;;;22.10;11.93;;;6.50;99.90;;;;;;5031710;28;20029;-74
2021/12/20 12:54:33;;;;;;;18.50;11.10;;;6.40;99.90;;;;;;5046590;28;20111;-74
2021/12/20 12:57:10;;;;;;;17.67;11.02;;;6.40;99.90;;;;;;5032176;28;20044;-74
2021/12/20 12:59:48;;;;;;;20.15;11.82;;;6.80;99.90;;;;;;5032006;28;20029;-73
2021/12/20 13:02:20;;;;;;;19.17;11.13;;;6.70;99.90;;;;;;5013563;28;20515;-73
2021/12/20 13:04:47;;;;;;;14.40;10.00;;;6.90;99.90;;;;;;5031484;28;20036;-74